Flight Track Log - Related Links

Times and Time Zones

All times are in EDT time to prevent confusion due to time zone crossing. See the SWA268 flight status page for this flight to view local times or setup timezone preferences in your user account.

Time Position Orientation Groundspeed Altitude Reporting Facility
EDT Latitude Longitude Course Direction KTS MPH feet Rate Location/Type
Sun 05:32:59 PM 26.0719 -80.1806 273° West 156 180 1,000  Level Miami Center
Sun 05:34:10 PM 26.0747 -80.2408 273° West 187 215 2,800 1,786 Climbing Miami Center
Sun 05:35:10 PM 26.1364 -80.2842 328° Northwest 207 238 4,900 1,050 Climbing Miami Center
Sun 05:36:10 PM 26.2044 -80.3161 337° Northwest 234 269 4,900 1,350 Level Miami Center
Sun 05:37:10 PM 26.2275 -80.4003 287° West 272 313 7,600 2,550 Climbing Miami Center
Sun 05:38:10 PM 26.2447 -80.4678 286° West 272 313 10,000 2,350 Climbing Miami Center
Sun 05:39:10 PM 26.2817 -80.5803 290° West 307 353 12,300 2,900 Climbing Miami Center
Sun 05:40:10 PM 26.3525 -80.6614 314° West 353 406 15,800 3,200 Climbing Miami Center
Sun 05:41:10 PM 26.4211 -80.7517 310° West 371 427 18,700 2,800 Climbing Miami Center
Sun 05:42:10 PM 26.4897 -80.8444 310° West 382 440 21,400 1,650 Climbing Miami Center
Sun 05:43:10 PM 26.5664 -80.9397 312° West 403 464 22,000 300 Climbing Miami Center
Sun 05:44:10 PM 26.6367 -81.0375 309° West 408 470 22,000  Level Miami Center
Sun 05:45:10 PM 26.7111 -81.1356 310° West 413 475 22,000  Level Miami Center
Sun 05:46:10 PM 26.7814 -81.2333 309° West 408 470 22,000  Level Miami Center
Sun 05:47:10 PM 26.8556 -81.3292 311° West 408 470 22,000  Level Miami Center
Sun 05:48:10 PM 26.9297 -81.4275 310° West 408 470 22,000  Level Miami Center
Sun 05:49:10 PM 27.0019 -81.5236 310° West 408 470 22,000  Level Miami Center
Sun 05:50:10 PM 27.0739 -81.6197 310° West 408 470 22,000 -1,167 Level Miami Center
Sun 05:52:10 PM 27.2058 -81.7981 310° West 390 449 18,500 -2,125 Descending Miami Center
Sun 05:54:10 PM 27.3389 -81.9858 309° West 368 423 13,500 -2,333 Descending Miami Center
Sun 05:55:10 PM 27.4008 -82.0658 311° West 355 409 11,500 -1,250 Descending Miami Center
Sun 05:56:10 PM 27.4544 -82.1408 309° West 337 388 11,000 -250 Descending Miami Center
Sun 05:57:10 PM 27.5064 -82.2039 313° West 304 350 11,000 -350 Level Miami Center
Sun 05:58:10 PM 27.5606 -82.2603 317° Northwest 268 308 10,300 -1,233 Descending Miami Center
Sun 06:00:10 PM 27.6667 -82.3833 314° West 261 300 7,300 -1,267 Descending Tampa TRACON
Sun 06:01:10 PM 27.6833 -82.4500 286° West 220 253 6,500 -991 Descending Tampa TRACON
Sun 06:02:05 PM 27.7167 -82.5167 299° West 211 243 5,400 -1,200 Descending Tampa TRACON
Sun 06:03:05 PM 27.7667 -82.5333 344° North 209 241 4,200 -1,200 Descending Tampa TRACON
Sun 06:04:05 PM 27.8167 -82.5500 344° North 214 246 3,000 -1,000 Descending Tampa TRACON
Sun 06:05:05 PM 27.8833 -82.5500 360° North 196 226 2,200 -800 Descending Tampa TRACON
Sun 06:07:00 PM 27.9755 -82.5332 North  Level Estimated
Sun 06:14:00 PM 27.9755 -82.5332 190° South  Level Estimated
Sun 06:15:00 PM 27.9755 -82.5332 190° South  Level Estimated
Sun 06:16:00 PM 27.9755 -82.5332 190° South  Level Estimated

Login

Don't have an account? Register now (free) for customized features, flight alerts, and more!